Time;durP1;ratioP1;P1;durP2;ratioP2;P2;SDS_P1;SDS_P2;PMS_P1;PMS_P2;Temp;Humidity;BMP_temperature;BMP_pressure;BME280_temperature;BME280_humidity;BME280_pressure;Samples;Min_cycle;Max_cycle;Signal;HPM_P1;HPM_P2
2022/03/08 00:01:33;;;;;;;51.05;32.00;;;0.70;99.90;;;;;;4971070;28;20026;-73
2022/03/08 00:03:59;;;;;;;51.47;32.90;;;0.70;99.90;;;;;;4972380;28;20034;-73
2022/03/08 00:06:28;;;;;;;49.47;29.98;;;0.60;99.90;;;;;;4971297;28;20034;-73
2022/03/08 00:08:54;;;;;;;50.22;30.83;;;0.70;99.90;;;;;;4971138;28;20048;-73
2022/03/08 00:11:20;;;;;;;53.35;33.42;;;0.60;99.90;;;;;;4969741;28;20054;-73
2022/03/08 00:13:46;;;;;;;51.78;31.27;;;0.60;99.90;;;;;;4973159;28;20074;-73
2022/03/08 00:16:12;;;;;;;55.00;33.58;;;0.70;99.90;;;;;;4987795;28;20034;-72
2022/03/08 00:18:38;;;;;;;53.10;30.90;;;0.70;99.90;;;;;;4974102;28;20037;-71
2022/03/08 00:21:07;;;;;;;47.63;30.05;;;0.60;99.90;;;;;;4983627;28;20066;-72
2022/03/08 00:23:33;;;;;;;55.72;36.03;;;0.70;99.90;;;;;;4971641;28;20122;-72
2022/03/08 00:26:02;;;;;;;50.00;32.90;;;0.80;99.90;;;;;;4971463;28;20785;-73
2022/03/08 00:28:29;;;;;;;59.17;35.55;;;0.80;99.90;;;;;;4971910;28;20469;-72
2022/03/08 00:30:56;;;;;;;69.50;45.30;;;0.90;99.90;;;;;;4987250;28;20381;-71
2022/03/08 00:33:23;;;;;;;65.75;40.83;;;1.00;99.90;;;;;;4970866;28;20492;-73
2022/03/08 00:35:49;;;;;;;48.65;29.52;;;1.00;99.90;;;;;;4975227;28;20054;-72
2022/03/08 00:38:15;;;;;;;56.40;32.53;;;1.00;99.90;;;;;;4976256;28;20046;-73
2022/03/08 00:40:41;;;;;;;50.75;31.80;;;1.10;99.90;;;;;;4976167;28;20186;-73
2022/03/08 00:43:08;;;;;;;46.05;29.50;;;1.10;99.90;;;;;;4985692;28;20444;-72
2022/03/08 00:45:34;;;;;;;50.42;28.70;;;1.10;99.90;;;;;;4975643;28;20050;-72
2022/03/08 00:48:00;;;;;;;44.78;28.58;;;1.10;99.90;;;;;;4976132;28;20026;-73
2022/03/08 00:50:28;;;;;;;43.00;27.58;;;1.00;99.90;;;;;;4969644;28;20041;-72
2022/03/08 00:52:57;;;;;;;41.15;27.02;;;1.10;99.90;;;;;;4972136;28;20497;-73
2022/03/08 00:55:25;;;;;;;45.80;28.20;;;1.10;99.90;;;;;;4971415;28;20039;-72
2022/03/08 00:57:53;;;;;;;47.15;28.30;;;1.10;99.90;;;;;;4965394;28;20114;-74
2022/03/08 01:00:22;;;;;;;47.88;30.13;;;1.10;99.90;;;;;;4969158;28;20382;-73
2022/03/08 01:02:48;;;;;;;44.90;27.38;;;1.10;99.90;;;;;;4971258;28;20023;-73
2022/03/08 01:05:15;;;;;;;44.67;28.60;;;1.10;99.90;;;;;;4975644;28;20074;-73
2022/03/08 01:07:42;;;;;;;45.80;29.65;;;1.10;99.90;;;;;;4974387;28;20054;-73
2022/03/08 01:10:11;;;;;;;41.45;26.40;;;1.10;99.90;;;;;;4975144;28;20396;-73
2022/03/08 01:12:37;;;;;;;41.13;25.90;;;1.10;99.90;;;;;;4974706;28;20027;-75
2022/03/08 01:15:05;;;;;;;42.35;27.20;;;1.00;99.90;;;;;;4974737;28;20106;-75
2022/03/08 01:17:33;;;;;;;42.03;26.92;;;1.10;99.90;;;;;;4975715;28;20409;-75
2022/03/08 01:19:59;;;;;;;42.75;28.13;;;1.10;99.90;;;;;;4976012;28;20485;-75
2022/03/08 01:22:25;;;;;;;49.83;31.58;;;1.10;99.90;;;;;;4975718;28;20031;-75
2022/03/08 01:24:53;;;;;;;54.42;32.42;;;1.00;99.90;;;;;;4976130;28;20027;-72
2022/03/08 01:27:19;;;;;;;52.03;32.90;;;1.00;99.90;;;;;;4975168;28;20019;-74
2022/03/08 01:29:45;;;;;;;52.95;32.67;;;1.00;99.90;;;;;;4975988;28;20042;-73
2022/03/08 01:32:11;;;;;;;52.45;32.05;;;0.90;99.90;;;;;;4975837;28;20054;-73
2022/03/08 01:34:37;;;;;;;47.05;30.30;;;1.00;99.90;;;;;;4975573;28;20039;-72
2022/03/08 01:37:05;;;;;;;52.67;31.75;;;1.00;99.90;;;;;;4975145;28;20030;-71
2022/03/08 01:39:31;;;;;;;51.00;31.13;;;0.90;99.90;;;;;;4975576;28;20031;-72
2022/03/08 01:41:57;;;;;;;52.03;32.33;;;0.90;99.90;;;;;;4975188;28;20023;-74
2022/03/08 01:44:26;;;;;;;53.30;32.92;;;0.90;99.90;;;;;;4986130;28;20037;-73
2022/03/08 01:46:52;;;;;;;56.63;33.92;;;0.90;99.90;;;;;;4973057;28;20139;-73
2022/03/08 01:49:18;;;;;;;51.35;31.63;;;0.80;99.90;;;;;;4975462;28;20043;-72
2022/03/08 01:51:45;;;;;;;52.17;31.30;;;0.90;99.90;;;;;;4973882;28;20046;-72
2022/03/08 01:54:11;;;;;;;50.03;29.88;;;0.80;99.90;;;;;;4975384;28;20039;-73
2022/03/08 01:56:37;;;;;;;48.80;31.50;;;0.90;99.90;;;;;;4974923;28;20055;-74
2022/03/08 01:59:07;;;;;;;50.17;31.63;;;0.80;99.90;;;;;;4973806;28;20031;-73
2022/03/08 02:01:33;;;;;;;47.85;29.40;;;0.80;99.90;;;;;;4973306;28;20450;-73
2022/03/08 02:03:59;;;;;;;49.45;30.00;;;0.90;99.90;;;;;;4970753;28;20031;-72
2022/03/08 02:06:25;;;;;;;48.58;31.08;;;0.80;99.90;;;;;;4955820;29;20169;-72
2022/03/08 02:08:51;;;;;;;59.72;33.83;;;0.80;99.90;;;;;;4969094;28;20066;-73
2022/03/08 02:11:17;;;;;;;53.13;33.50;;;0.80;99.90;;;;;;4974643;28;20057;-72
2022/03/08 02:13:43;;;;;;;51.65;31.13;;;0.80;99.90;;;;;;4975034;28;20031;-73
2022/03/08 02:16:10;;;;;;;53.33;31.48;;;0.80;99.90;;;;;;4963410;28;20028;-75
2022/03/08 02:18:37;;;;;;;50.28;31.02;;;0.90;99.90;;;;;;4955686;28;20035;-72
2022/03/08 02:21:05;;;;;;;49.55;30.67;;;0.80;99.90;;;;;;4955340;28;20051;-74
2022/03/08 02:23:31;;;;;;;51.65;32.47;;;0.80;99.90;;;;;;4954104;28;20035;-73
2022/03/08 02:25:58;;;;;;;51.67;31.52;;;0.80;99.90;;;;;;4955130;28;20027;-72
2022/03/08 02:28:24;;;;;;;51.63;32.30;;;0.90;99.90;;;;;;4955108;28;20031;-73
2022/03/08 02:30:50;;;;;;;53.72;33.05;;;0.90;99.90;;;;;;4954850;28;20023;-74
2022/03/08 02:33:15;;;;;;;50.33;31.05;;;0.90;99.90;;;;;;4967039;28;20045;-75
2022/03/08 02:35:41;;;;;;;50.85;31.10;;;0.90;99.90;;;;;;4974421;28;20047;-74
2022/03/08 02:38:07;;;;;;;46.67;28.85;;;0.80;99.90;;;;;;4974336;28;20477;-74
2022/03/08 02:40:38;;;;;;;47.08;29.08;;;0.80;99.90;;;;;;4974533;28;20035;-73
2022/03/08 02:43:07;;;;;;;51.05;31.42;;;0.80;99.90;;;;;;4973472;28;20031;-73
2022/03/08 02:45:34;;;;;;;44.88;29.55;;;0.80;99.90;;;;;;4973019;28;20055;-73
2022/03/08 02:48:00;;;;;;;47.95;29.95;;;0.80;99.90;;;;;;4973505;28;20031;-74
2022/03/08 02:50:26;;;;;;;45.28;28.50;;;0.80;99.90;;;;;;4973915;28;20031;-73
2022/03/08 02:52:54;;;;;;;46.70;28.48;;;0.80;99.90;;;;;;4973639;28;20117;-71
2022/03/08 02:55:23;;;;;;;48.58;29.10;;;0.80;99.90;;;;;;4955787;28;20129;-72
2022/03/08 02:57:50;;;;;;;49.13;30.15;;;0.70;99.90;;;;;;4982824;28;20026;-73
2022/03/08 03:00:19;;;;;;;49.50;29.30;;;0.70;99.90;;;;;;4990212;28;20027;-72
2022/03/08 03:02:46;;;;;;;49.28;29.13;;;0.70;99.90;;;;;;4989899;28;20076;-73
2022/03/08 03:05:13;;;;;;;42.80;27.77;;;0.70;99.90;;;;;;4974268;28;20031;-73
2022/03/08 03:07:39;;;;;;;47.17;28.45;;;0.70;99.90;;;;;;4976153;28;20385;-73
2022/03/08 03:10:12;;;;;;;46.35;28.48;;;0.70;99.90;;;;;;4986349;28;20018;-74
2022/03/08 03:12:38;;;;;;;45.78;29.33;;;0.70;99.90;;;;;;4975498;28;20068;-73
2022/03/08 03:15:07;;;;;;;51.28;30.80;;;0.80;99.90;;;;;;4974640;28;20030;-71
2022/03/08 03:17:34;;;;;;;49.55;29.50;;;0.70;99.90;;;;;;4991278;28;20026;-73
2022/03/08 03:20:00;;;;;;;49.45;30.25;;;0.60;99.90;;;;;;4977527;28;20473;-72
2022/03/08 03:22:26;;;;;;;59.22;31.30;;;0.70;99.90;;;;;;4983526;28;20030;-72
2022/03/08 03:24:52;;;;;;;50.63;31.27;;;0.60;99.90;;;;;;4987073;28;20022;-74
2022/03/08 03:27:18;;;;;;;46.55;28.63;;;0.60;99.90;;;;;;4973319;28;20370;-75
2022/03/08 03:29:44;;;;;;;51.33;31.67;;;0.60;99.90;;;;;;4973529;28;20058;-74
2022/03/08 03:32:10;;;;;;;49.42;28.25;;;0.50;99.90;;;;;;4973468;28;20031;-74
2022/03/08 03:34:36;;;;;;;51.35;30.40;;;0.50;99.90;;;;;;4972946;28;20062;-72
2022/03/08 03:37:02;;;;;;;46.75;28.23;;;0.50;99.90;;;;;;4973706;28;20085;-73
2022/03/08 03:39:28;;;;;;;43.65;26.55;;;0.50;99.90;;;;;;4973139;28;20095;-72
2022/03/08 03:41:54;;;;;;;45.88;27.17;;;0.50;99.90;;;;;;4973086;28;20046;-73
2022/03/08 03:44:20;;;;;;;44.97;26.30;;;0.50;99.90;;;;;;4972956;28;20027;-73
2022/03/08 03:46:46;;;;;;;40.33;24.90;;;0.50;99.90;;;;;;4973094;28;20182;-74
2022/03/08 03:49:12;;;;;;;46.72;28.08;;;0.50;99.90;;;;;;4972854;28;20110;-73
2022/03/08 03:51:38;;;;;;;43.83;27.02;;;0.50;99.90;;;;;;4973267;28;20030;-73
2022/03/08 03:54:04;;;;;;;50.33;26.67;;;0.50;99.90;;;;;;4972951;28;20030;-74
2022/03/08 03:56:30;;;;;;;46.25;27.13;;;0.50;99.90;;;;;;4972594;28;20027;-74
2022/03/08 03:58:56;;;;;;;47.65;26.42;;;0.50;99.90;;;;;;4968055;28;20032;-73
2022/03/08 04:01:22;;;;;;;45.45;27.98;;;0.50;99.90;;;;;;4954820;28;20034;-72
2022/03/08 04:03:48;;;;;;;39.95;25.73;;;0.50;99.90;;;;;;4971109;28;20034;-74
2022/03/08 04:06:15;;;;;;;41.53;24.77;;;0.50;99.90;;;;;;4970899;28;20117;-74
2022/03/08 04:08:41;;;;;;;38.40;25.52;;;0.40;99.90;;;;;;4970733;28;20034;-73
2022/03/08 04:11:07;;;;;;;37.95;23.70;;;0.50;99.90;;;;;;4972118;28;20030;-74
2022/03/08 04:13:33;;;;;;;37.67;21.83;;;0.50;99.90;;;;;;4971780;28;20035;-74
2022/03/08 04:15:58;;;;;;;37.38;23.58;;;0.40;99.90;;;;;;4972134;28;20500;-74
2022/03/08 04:18:25;;;;;;;35.70;21.98;;;0.40;99.90;;;;;;4972371;28;20015;-74
2022/03/08 04:20:51;;;;;;;43.90;24.23;;;0.40;99.90;;;;;;4970916;28;20046;-73
2022/03/08 04:23:17;;;;;;;60.20;30.30;;;0.40;99.90;;;;;;4971993;28;20078;-73
2022/03/08 04:25:43;;;;;;;44.78;25.80;;;0.40;99.90;;;;;;4972324;28;20458;-74
2022/03/08 04:28:09;;;;;;;36.88;21.67;;;0.40;99.90;;;;;;4987467;28;20417;-73
2022/03/08 04:30:35;;;;;;;40.95;23.13;;;0.40;99.90;;;;;;4970538;28;20093;-74
2022/03/08 04:33:01;;;;;;;38.03;22.17;;;0.50;99.90;;;;;;4958013;28;20026;-74
2022/03/08 04:35:27;;;;;;;33.80;21.42;;;0.40;99.90;;;;;;4971705;28;20397;-74
2022/03/08 04:37:53;;;;;;;36.13;21.20;;;0.50;99.90;;;;;;4952089;28;20032;-71
2022/03/08 04:40:19;;;;;;;36.92;22.20;;;0.50;99.90;;;;;;4972171;28;20091;-73
2022/03/08 04:42:46;;;;;;;36.53;22.05;;;0.50;99.90;;;;;;4972105;28;20034;-72
2022/03/08 04:45:13;;;;;;;35.85;20.63;;;0.50;99.90;;;;;;4987072;28;20035;-74
2022/03/08 04:47:39;;;;;;;37.55;23.75;;;0.50;99.90;;;;;;4972409;28;20107;-73
2022/03/08 04:50:11;;;;;;;41.83;25.05;;;0.60;99.90;;;;;;4971514;28;20457;-73
2022/03/08 04:52:38;;;;;;;36.80;23.90;;;0.50;99.90;;;;;;4986949;28;20046;-72
2022/03/08 04:55:08;;;;;;;41.58;24.35;;;0.50;99.90;;;;;;4972022;28;20035;-71
2022/03/08 04:57:34;;;;;;;35.70;22.15;;;0.50;99.90;;;;;;4972345;28;20027;-72
2022/03/08 05:00:00;;;;;;;38.92;23.50;;;0.50;99.90;;;;;;4970914;28;20041;-73
2022/03/08 05:02:29;;;;;;;37.47;24.02;;;0.50;99.90;;;;;;4967656;28;20469;-72
2022/03/08 05:04:57;;;;;;;39.50;24.38;;;0.50;99.90;;;;;;4962238;28;20046;-73
2022/03/08 05:07:25;;;;;;;47.67;28.15;;;0.40;99.90;;;;;;4986816;28;20031;-73
2022/03/08 05:09:51;;;;;;;44.47;26.85;;;0.40;99.90;;;;;;4970971;28;20031;-72
2022/03/08 05:12:18;;;;;;;47.55;28.13;;;0.40;99.90;;;;;;4970285;28;20501;-72
2022/03/08 05:14:44;;;;;;;46.45;27.90;;;0.40;99.90;;;;;;4971474;28;20038;-71
2022/03/08 05:17:10;;;;;;;46.72;28.70;;;0.40;99.90;;;;;;4971243;28;20077;-72
2022/03/08 05:19:36;;;;;;;48.17;27.20;;;0.40;99.90;;;;;;4971197;28;20173;-72
2022/03/08 05:22:02;;;;;;;44.05;27.50;;;0.40;99.90;;;;;;4972498;28;20098;-72
2022/03/08 05:24:28;;;;;;;44.15;25.75;;;0.40;99.90;;;;;;4989901;28;20019;-75
2022/03/08 05:26:54;;;;;;;41.70;26.48;;;0.40;99.90;;;;;;4975458;28;20026;-73
2022/03/08 05:29:20;;;;;;;47.90;28.67;;;0.50;99.90;;;;;;4990255;28;20077;-72
2022/03/08 05:31:45;;;;;;;42.88;25.92;;;0.40;99.90;;;;;;4975245;28;20386;-72
2022/03/08 05:34:11;;;;;;;44.95;27.33;;;0.40;99.90;;;;;;4974674;28;20035;-70
2022/03/08 05:36:38;;;;;;;44.65;27.13;;;0.40;99.90;;;;;;4975426;28;20128;-72
2022/03/08 05:39:04;;;;;;;43.33;24.63;;;0.40;99.90;;;;;;4974647;28;20019;-73
2022/03/08 05:41:30;;;;;;;42.92;25.92;;;0.40;99.90;;;;;;4975023;28;20035;-73
2022/03/08 05:43:56;;;;;;;42.08;26.70;;;0.50;99.90;;;;;;4974969;28;20467;-73
2022/03/08 05:46:22;;;;;;;44.53;26.65;;;0.50;99.90;;;;;;4975018;28;20054;-73
2022/03/08 05:48:48;;;;;;;44.50;26.83;;;0.50;99.90;;;;;;4973177;28;20034;-72
2022/03/08 05:51:14;;;;;;;43.47;26.92;;;0.50;99.90;;;;;;4975150;28;20054;-73
2022/03/08 05:53:40;;;;;;;40.78;25.20;;;0.50;99.90;;;;;;4989917;28;20038;-73
2022/03/08 05:56:07;;;;;;;43.78;26.25;;;0.50;99.90;;;;;;4975048;28;20826;-73
2022/03/08 05:58:33;;;;;;;48.17;29.10;;;0.60;99.90;;;;;;4974856;28;20327;-74
2022/03/08 06:00:59;;;;;;;44.15;27.27;;;0.50;99.90;;;;;;4974673;28;20043;-72
2022/03/08 06:03:25;;;;;;;48.35;27.55;;;0.50;99.90;;;;;;4972036;28;20042;-73
2022/03/08 06:05:51;;;;;;;44.72;28.42;;;0.50;99.90;;;;;;4974528;28;20035;-73
2022/03/08 06:08:16;;;;;;;48.38;27.58;;;0.50;99.90;;;;;;4974184;28;20374;-72
2022/03/08 06:10:42;;;;;;;53.10;30.45;;;0.60;99.90;;;;;;4974495;28;20106;-73
2022/03/08 06:13:08;;;;;;;48.30;31.17;;;0.60;99.90;;;;;;4973918;28;20109;-72
2022/03/08 06:15:34;;;;;;;49.85;30.58;;;0.60;99.90;;;;;;4975010;28;20385;-73
2022/03/08 06:18:00;;;;;;;48.42;29.45;;;0.70;99.90;;;;;;4990838;28;20018;-73
2022/03/08 06:20:26;;;;;;;48.13;30.80;;;0.60;99.90;;;;;;5006805;28;20033;-73
2022/03/08 06:22:54;;;;;;;49.85;31.25;;;0.60;99.90;;;;;;4976006;28;20027;-73
2022/03/08 06:25:20;;;;;;;54.67;31.15;;;0.80;99.90;;;;;;4974214;28;20035;-74
2022/03/08 06:27:46;;;;;;;49.10;29.88;;;0.80;99.90;;;;;;4980373;28;20831;-73
2022/03/08 06:30:12;;;;;;;56.05;30.70;;;0.80;99.90;;;;;;4993420;28;20045;-73
2022/03/08 06:32:38;;;;;;;52.10;32.22;;;0.70;99.90;;;;;;4978580;28;20412;-73
2022/03/08 06:35:05;;;;;;;50.55;32.60;;;0.70;99.90;;;;;;4989866;28;20042;-73
2022/03/08 06:37:31;;;;;;;48.05;31.70;;;0.80;99.90;;;;;;4974480;28;20620;-73
2022/03/08 06:39:57;;;;;;;49.05;31.70;;;0.80;99.90;;;;;;4974291;28;20531;-73
2022/03/08 06:42:22;;;;;;;49.05;32.00;;;0.80;99.90;;;;;;4987609;28;20023;-73
2022/03/08 06:44:49;;;;;;;48.70;31.58;;;0.80;99.90;;;;;;4993651;28;20038;-73
2022/03/08 06:47:15;;;;;;;59.58;34.08;;;0.90;99.90;;;;;;4992182;28;20034;-73
2022/03/08 06:49:41;;;;;;;56.53;33.67;;;0.90;99.90;;;;;;4977831;28;20062;-73
2022/03/08 06:52:09;;;;;;;53.38;34.15;;;1.00;99.90;;;;;;4974734;28;20474;-71
2022/03/08 06:54:35;;;;;;;58.72;35.63;;;1.10;99.90;;;;;;4982561;28;20449;-73
2022/03/08 06:57:02;;;;;;;56.90;35.38;;;1.00;99.90;;;;;;4974106;28;20026;-73
2022/03/08 06:59:28;;;;;;;56.03;33.42;;;1.00;99.90;;;;;;4974199;28;20385;-73
2022/03/08 07:01:56;;;;;;;51.10;33.25;;;1.10;99.90;;;;;;4981883;28;20026;-73
2022/03/08 07:04:23;;;;;;;51.95;33.53;;;1.10;99.90;;;;;;4990255;28;20412;-72
2022/03/08 07:06:49;;;;;;;47.63;31.80;;;1.10;99.90;;;;;;4973184;28;20027;-73
2022/03/08 07:09:15;;;;;;;51.50;32.35;;;1.10;99.90;;;;;;4973643;28;20081;-73
2022/03/08 07:11:41;;;;;;;52.40;33.13;;;1.20;99.90;;;;;;4973237;28;20389;-73
2022/03/08 07:14:08;;;;;;;51.15;32.75;;;1.30;99.90;;;;;;4972991;28;20390;-72
2022/03/08 07:16:34;;;;;;;54.58;33.42;;;1.30;99.90;;;;;;4973170;28;20019;-73
2022/03/08 07:19:00;;;;;;;51.15;33.03;;;1.30;99.90;;;;;;4973754;28;20477;-72
2022/03/08 07:21:26;;;;;;;54.63;34.60;;;1.40;99.90;;;;;;4973249;28;20034;-72
2022/03/08 07:23:52;;;;;;;53.78;33.90;;;1.50;99.90;;;;;;4971720;28;20022;-72
2022/03/08 07:26:19;;;;;;;50.13;32.03;;;1.50;99.90;;;;;;4973100;28;20500;-73
2022/03/08 07:28:45;;;;;;;56.65;34.65;;;1.50;99.90;;;;;;4973323;28;20030;-73
2022/03/08 07:31:12;;;;;;;57.55;33.63;;;1.60;99.90;;;;;;4972936;28;20491;-73
2022/03/08 07:33:40;;;;;;;51.72;33.63;;;1.60;99.90;;;;;;4972924;28;20066;-70
2022/03/08 07:36:06;;;;;;;57.13;32.60;;;1.70;99.90;;;;;;4972618;28;20512;-72
2022/03/08 07:38:32;;;;;;;51.83;31.25;;;1.70;99.90;;;;;;4973213;28;20469;-71
2022/03/08 07:40:58;;;;;;;53.78;33.33;;;1.70;99.90;;;;;;4972113;28;20031;-73
2022/03/08 07:43:24;;;;;;;55.97;33.00;;;1.70;99.90;;;;;;4973227;28;20035;-71
2022/03/08 07:45:50;;;;;;;55.28;31.45;;;1.90;99.90;;;;;;4972462;28;20053;-72
2022/03/08 07:48:17;;;;;;;51.33;31.65;;;1.80;99.90;;;;;;4973376;28;20386;-73
2022/03/08 07:50:43;;;;;;;52.83;31.55;;;1.90;99.90;;;;;;4972884;28;20015;-73
2022/03/08 07:53:09;;;;;;;52.10;30.88;;;1.90;99.90;;;;;;4972139;28;20031;-72
2022/03/08 07:55:35;;;;;;;53.38;32.83;;;2.10;99.90;;;;;;4972904;28;20460;-73
2022/03/08 07:58:03;;;;;;;46.53;31.15;;;2.20;99.90;;;;;;4972931;28;20023;-73
2022/03/08 08:00:30;;;;;;;50.05;29.95;;;2.20;99.90;;;;;;4972690;28;20547;-72
2022/03/08 08:02:56;;;;;;;48.42;29.67;;;2.10;99.90;;;;;;4972113;28;20488;-73
2022/03/08 08:05:23;;;;;;;49.88;30.67;;;2.30;99.90;;;;;;4970719;28;20034;-72
2022/03/08 08:07:49;;;;;;;45.75;26.80;;;2.40;99.90;;;;;;4972547;28;20027;-73
2022/03/08 08:10:14;;;;;;;50.53;29.08;;;2.40;99.90;;;;;;4972206;28;20600;-72
2022/03/08 08:12:40;;;;;;;52.08;31.15;;;2.40;99.90;;;;;;4972690;28;20038;-73
2022/03/08 08:15:07;;;;;;;45.55;28.40;;;2.50;99.90;;;;;;4971682;28;20047;-72
2022/03/08 08:17:33;;;;;;;55.35;31.58;;;2.60;99.90;;;;;;4972375;28;20034;-73
2022/03/08 08:19:59;;;;;;;47.28;27.17;;;2.70;99.90;;;;;;4972181;28;20035;-72
2022/03/08 08:22:25;;;;;;;42.35;24.90;;;2.70;99.90;;;;;;4972522;28;20473;-72
2022/03/08 08:24:51;;;;;;;45.60;27.40;;;2.80;99.90;;;;;;4972620;28;20026;-73
2022/03/08 08:27:17;;;;;;;40.70;26.25;;;3.00;99.90;;;;;;4972723;28;20432;-73
2022/03/08 08:29:43;;;;;;;45.30;27.08;;;2.90;99.90;;;;;;4971889;28;20031;-73
2022/03/08 08:32:09;;;;;;;42.47;26.30;;;3.00;99.90;;;;;;4972870;28;20508;-73
2022/03/08 08:34:35;;;;;;;43.47;26.42;;;3.10;99.90;;;;;;4972767;28;20045;-72
2022/03/08 08:37:01;;;;;;;46.90;25.92;;;3.30;99.90;;;;;;4972749;28;20039;-71
2022/03/08 08:39:27;;;;;;;44.55;26.83;;;3.00;99.90;;;;;;4971742;28;20045;-73
2022/03/08 08:41:53;;;;;;;40.13;25.70;;;3.00;99.90;;;;;;4972913;28;20473;-72
2022/03/08 08:44:19;;;;;;;42.47;26.80;;;3.20;99.90;;;;;;4972423;28;20037;-72
2022/03/08 08:46:48;;;;;;;40.83;26.42;;;3.30;99.90;;;;;;4972166;28;20489;-73
2022/03/08 08:49:14;;;;;;;41.78;26.50;;;3.40;99.90;;;;;;4971819;28;20035;-72
2022/03/08 08:51:41;;;;;;;46.83;24.70;;;3.60;99.90;;;;;;4972286;28;20023;-73
2022/03/08 08:54:06;;;;;;;41.80;24.90;;;3.50;99.90;;;;;;4972119;28;20042;-73
2022/03/08 08:56:35;;;;;;;39.05;23.58;;;3.40;99.90;;;;;;4974568;28;20477;-74
2022/03/08 08:59:03;;;;;;;41.58;25.58;;;3.30;99.90;;;;;;4973828;28;20022;-74
2022/03/08 09:01:29;;;;;;;43.75;25.05;;;3.40;99.90;;;;;;4973103;28;20449;-73
2022/03/08 09:03:55;;;;;;;40.20;25.20;;;3.60;99.90;;;;;;4975478;28;20149;-74
2022/03/08 09:06:21;;;;;;;40.03;24.27;;;3.60;99.90;;;;;;4973399;28;20039;-73
2022/03/08 09:08:48;;;;;;;39.88;23.30;;;3.50;99.90;;;;;;4975294;28;20026;-74
2022/03/08 09:11:14;;;;;;;39.58;24.30;;;3.50;99.90;;;;;;4974519;28;20027;-74
2022/03/08 09:13:40;;;;;;;41.80;26.23;;;3.70;99.90;;;;;;4975645;28;20023;-74
2022/03/08 09:16:07;;;;;;;36.72;23.23;;;3.60;99.90;;;;;;4975505;28;20045;-74
2022/03/08 09:18:33;;;;;;;38.38;23.77;;;3.60;99.90;;;;;;4978284;28;20469;-74
2022/03/08 09:20:59;;;;;;;37.72;23.63;;;3.60;99.90;;;;;;4978006;28;20106;-73
2022/03/08 09:23:25;;;;;;;37.40;23.85;;;3.80;99.90;;;;;;4989524;28;20483;-73
2022/03/08 09:25:51;;;;;;;44.40;26.42;;;3.80;99.90;;;;;;4974808;28;20434;-73
2022/03/08 09:28:17;;;;;;;40.90;24.25;;;3.90;99.90;;;;;;4975766;28;20118;-72
2022/03/08 09:30:44;;;;;;;43.88;23.52;;;3.90;99.90;;;;;;4977681;28;20106;-73
2022/03/08 09:33:10;;;;;;;39.17;22.45;;;3.90;99.90;;;;;;4976104;28;20023;-73
2022/03/08 09:35:37;;;;;;;39.78;23.10;;;4.10;99.90;;;;;;4978570;28;20062;-73
2022/03/08 09:38:04;;;;;;;39.47;23.85;;;4.40;99.90;;;;;;4990534;28;20428;-74
2022/03/08 09:40:30;;;;;;;40.70;23.00;;;4.70;99.90;;;;;;4975242;28;20080;-73
2022/03/08 09:42:57;;;;;;;41.17;24.17;;;4.70;99.90;;;;;;4981410;28;20644;-73
2022/03/08 09:45:23;;;;;;;35.80;22.90;;;4.90;99.90;;;;;;4979508;28;20051;-72
2022/03/08 09:47:50;;;;;;;37.95;23.23;;;5.00;99.90;;;;;;4975201;28;20608;-73
2022/03/08 09:50:16;;;;;;;47.90;27.23;;;5.10;99.90;;;;;;4974930;28;20023;-74
2022/03/08 09:52:43;;;;;;;34.10;19.65;;;5.00;97.90;;;;;;4974504;28;20042;-74
2022/03/08 09:55:16;;;;;;;33.33;19.98;;;4.80;99.90;;;;;;4974920;28;20054;-74
2022/03/08 09:57:42;;;;;;;32.83;20.88;;;4.80;99.90;;;;;;4974534;28;20050;-73
2022/03/08 10:00:12;;;;;;;35.33;21.85;;;4.80;98.70;;;;;;4974976;28;20492;-73
2022/03/08 10:02:43;;;;;;;39.72;21.08;;;4.80;99.90;;;;;;4974513;28;20030;-73
2022/03/08 10:05:09;;;;;;;36.92;22.35;;;4.80;99.90;;;;;;4974477;28;20385;-73
2022/03/08 10:07:35;;;;;;;31.98;18.67;;;4.90;99.90;;;;;;4972758;28;20038;-73
2022/03/08 10:10:01;;;;;;;30.98;18.40;;;4.80;94.40;;;;;;4974046;28;20239;-73
2022/03/08 10:12:27;;;;;;;32.00;20.33;;;4.70;99.40;;;;;;4974767;28;20484;-72
2022/03/08 10:14:54;;;;;;;29.90;18.40;;;5.00;99.90;;;;;;4974121;28;20043;-72
2022/03/08 10:17:38;;;;;;;40.15;19.60;;;4.80;95.90;;;;;;4974727;28;20038;-73
2022/03/08 10:20:10;;;;;;;32.30;18.02;;;5.00;97.90;;;;;;4973605;28;20041;-72
2022/03/08 10:22:40;;;;;;;30.20;17.92;;;5.10;99.90;;;;;;4978871;28;20031;-73
2022/03/08 10:25:13;;;;;;;37.25;19.15;;;5.10;96.90;;;;;;4975449;28;20424;-73
2022/03/08 10:27:54;;;;;;;32.33;19.05;;;5.50;99.90;;;;;;4972273;28;20026;-75
2022/03/08 10:30:26;;;;;;;32.17;19.25;;;5.60;99.90;;;;;;4973807;28;20035;-74
2022/03/08 10:32:56;;;;;;;29.92;17.77;;;5.60;97.20;;;;;;4981471;28;20039;-74
2022/03/08 10:35:27;;;;;;;30.48;18.02;;;5.30;95.50;;;;;;4983887;28;20074;-74
2022/03/08 10:37:57;;;;;;;29.50;19.48;;;5.10;96.20;;;;;;4969997;28;20043;-76
2022/03/08 10:40:34;;;;;;;29.35;18.20;;;5.10;99.90;;;;;;4973316;28;20093;-72
2022/03/08 10:43:03;;;;;;;29.27;16.50;;;5.00;99.90;;;;;;4973952;28;20027;-72
2022/03/08 10:45:31;;;;;;;27.50;16.95;;;5.20;97.70;;;;;;4970816;28;20118;-72
2022/03/08 10:47:58;;;;;;;25.73;16.33;;;5.10;94.50;;;;;;4972524;28;20053;-73
2022/03/08 10:50:26;;;;;;;28.25;18.10;;;5.00;94.30;;;;;;4973588;28;20027;-72
2022/03/08 10:52:56;;;;;;;30.70;16.95;;;5.20;97.70;;;;;;4973183;28;20019;-71
2022/03/08 10:55:29;;;;;;;35.05;19.50;;;5.50;99.90;;;;;;4973845;28;20464;-71
2022/03/08 10:57:56;;;;;;;;;;;5.70;98.30;;;;;;4972388;28;20480;-73
2022/03/08 11:00:30;;;;;;;30.75;18.45;;;5.90;95.80;;;;;;4973178;28;19914;-73
2022/03/08 11:02:59;;;;;;;26.58;16.35;;;6.00;98.60;;;;;;4971804;28;20074;-72
2022/03/08 11:05:27;;;;;;;32.67;18.58;;;6.10;97.60;;;;;;4972941;28;20500;-72
2022/03/08 11:07:54;;;;;;;28.67;17.25;;;6.30;98.10;;;;;;4968594;28;20042;-72
2022/03/08 11:10:21;;;;;;;29.08;17.38;;;6.20;93.50;;;;;;4971975;28;20019;-73
2022/03/08 11:12:48;;;;;;;27.75;16.58;;;6.10;98.80;;;;;;4972628;28;20469;-71
2022/03/08 11:15:16;;;;;;;27.02;15.57;;;6.00;97.80;;;;;;4972449;28;20125;-75
2022/03/08 11:17:45;;;;;;;30.77;18.10;;;6.00;96.80;;;;;;4967572;28;20532;-75
2022/03/08 11:20:13;;;;;;;23.48;15.80;;;6.00;97.90;;;;;;4967850;28;20050;-75
2022/03/08 11:22:40;;;;;;;22.52;14.20;;;6.00;95.20;;;;;;4971776;28;20081;-73
2022/03/08 11:25:08;;;;;;;26.50;14.63;;;6.00;96.30;;;;;;4972394;28;20058;-73
2022/03/08 11:27:36;;;;;;;28.10;16.52;;;6.00;95.80;;;;;;4987469;28;20034;-71
2022/03/08 11:30:04;;;;;;;21.45;13.63;;;5.90;96.60;;;;;;4971738;28;20489;-73
2022/03/08 11:32:47;;;;;;;28.45;13.63;;;5.90;94.30;;;;;;4988014;28;20033;-71
2022/03/08 11:35:26;;;;;;;28.38;14.75;;;5.90;90.30;;;;;;4972977;28;20042;-73
2022/03/08 11:37:52;;;;;;;25.50;14.98;;;5.80;91.50;;;;;;4956031;28;20396;-72
2022/03/08 11:40:21;;;;;;;23.65;14.02;;;5.80;90.70;;;;;;4971465;28;20120;-72
2022/03/08 11:42:53;;;;;;;25.73;13.63;;;6.00;91.20;;;;;;4971192;28;20027;-72
2022/03/08 11:45:25;;;;;;;18.80;9.77;;;6.10;89.20;;;;;;4972402;28;20463;-72
2022/03/08 11:47:59;;;;;;;18.17;10.35;;;6.50;84.30;;;;;;4971362;28;20031;-71
2022/03/08 11:50:29;;;;;;;17.55;9.38;;;6.50;82.80;;;;;;4971512;28;20043;-70
2022/03/08 11:53:07;;;;;;;17.63;9.90;;;6.40;77.00;;;;;;4970134;28;20469;-73
2022/03/08 11:55:44;;;;;;;20.52;10.77;;;6.40;79.20;;;;;;4975691;28;20049;-72
2022/03/08 11:58:16;;;;;;;18.05;9.40;;;6.50;80.90;;;;;;4968976;28;20027;-72
2022/03/08 12:00:45;;;;;;;18.33;9.07;;;6.60;79.40;;;;;;4981525;28;20080;-72
2022/03/08 12:03:20;;;;;;;18.05;8.43;;;6.70;76.50;;;;;;4976274;28;20261;-72
2022/03/08 12:05:56;;;;;;;20.25;11.38;;;6.40;74.00;;;;;;4971536;28;20110;-71
2022/03/08 12:08:28;;;;;;;22.23;11.60;;;6.30;74.70;;;;;;4962317;28;20035;-73
2022/03/08 12:11:07;;;;;;;;;;;6.20;74.70;;;;;;4969780;28;20433;-72
2022/03/08 12:13:38;;;;;;;20.75;10.57;;;6.10;72.40;;;;;;4970733;28;20339;-74
2022/03/08 12:16:10;;;;;;;21.67;11.27;;;6.10;75.70;;;;;;4976444;28;20035;-73
2022/03/08 12:18:54;;;;;;;20.30;10.23;;;5.90;77.40;;;;;;4971764;28;20026;-75
2022/03/08 12:21:23;;;;;;;17.83;8.45;;;5.70;80.90;;;;;;4970291;28;20088;-74
2022/03/08 12:24:00;;;;;;;21.70;8.52;;;5.20;84.70;;;;;;4971452;28;20033;-71
2022/03/08 12:26:36;;;;;;;22.90;11.18;;;5.20;86.80;;;;;;4986325;28;20039;-75
2022/03/08 12:29:10;;;;;;;16.23;8.50;;;5.30;92.70;;;;;;4971624;28;20066;-73
2022/03/08 12:31:57;;;;;;;17.42;8.65;;;5.30;93.50;;;;;;4974607;28;20037;-72
2022/03/08 12:34:39;;;;;;;16.20;9.57;;;5.20;92.50;;;;;;4976084;28;20037;-72
2022/03/08 12:37:18;;;;;;;21.90;11.50;;;5.20;91.00;;;;;;4976107;28;20113;-72
2022/03/08 12:40:04;;;;;;;16.15;8.65;;;5.20;93.10;;;;;;4976201;28;20026;-73